CW9040 Weather Reports


Display with metric or nautical units.
time (UTC)temp
F
wind
direction
speed
MPH
gust
MPH
rain 1hr
in
rain 24hr
in
rain mn
in
humidity
%
barometer
mb
20200124063011 72 268 0.0 0.0 0.00 0.00 0.00 34 1006.5
20200124060511 69 268 0.0 0.0 0.00 0.00 0.00 38 1006.5
20200124060011 69 268 0.0 0.0 0.00 0.00 0.00 40 1006.4
20200124053511 65 268 0.0 0.0 0.00 0.00 0.00 43 1006.1
20200124053011 65 268 0.0 0.0 0.00 0.00 0.00 44 1006.1
20200124050011 63 268 0.0 0.0 0.00 0.00 0.00 44 1005.8
20200124043510 63 268 0.0 0.0 0.00 0.00 0.00 44 1005.5
20200124043011 63 268 0.0 0.0 0.00 0.00 0.00 43 1005.4
20200124040511 63 268 0.0 0.0 0.00 0.00 0.00 43 1005.2
20200124040011 63 268 0.0 0.0 0.00 0.00 0.00 43 1005.2
20200124033510 64 268 0.0 0.0 0.00 0.00 0.00 43 1004.8
20200124033011 64 268 0.0 0.0 0.00 0.00 0.00 43 1004.8
20200124030510 65 268 0.0 0.0 0.00 0.00 0.00 41 1004.6
20200124030010 65 268 0.0 0.0 0.00 0.00 0.00 41 1004.5
20200124023511 66 268 0.0 0.0 0.00 0.00 0.00 40 1004.5
20200124013510 66 268 0.0 0.0 0.00 0.00 0.00 38 1004.5
20200124013011 66 268 0.0 0.0 0.00 0.00 0.00 38 1004.5
20200124003510 67 268 0.0 0.0 0.00 0.00 0.00 37 1004.5
20200124003011 67 268 0.0 0.0 0.00 0.00 0.00 36 1004.5
20200124000518 68 268 0.0 0.0 0.00 0.00 0.00 36 1004.6
20200124000011 68 268 0.0 0.0 0.00 0.00 0.00 35 1004.6
20200123233510 68 268 0.0 0.0 0.00 0.00 0.00 34 1004.7
20200123233011 69 268 0.0 0.0 0.00 0.00 0.00 34 1004.7
20200123230510 69 268 0.0 0.0 0.00 0.00 0.00 33 1004.8
20200123230010 69 268 0.0 0.0 0.00 0.00 0.00 33 1004.8
20200123223510 70 268 0.0 0.0 0.00 0.00 0.00 32 1004.9
20200123223011 70 268 0.0 2.0 0.00 0.00 0.00 32 1005.0
20200123220528 71 276 0.0 0.0 0.00 0.00 0.00 31 1005.3
20200123220010 71 276 0.0 0.0 0.00 0.00 0.00 31 1005.3
20200123213510 72 276 0.0 0.0 0.00 0.00 0.00 30 1005.3
20200123213011 72 276 0.0 0.0 0.00 0.00 0.00 29 1005.3
20200123210510 73 276 0.0 0.0 0.00 0.00 0.00 29 1005.5
20200123210010 73 276 0.0 0.0 0.00 0.00 0.00 29 1005.4
20200123203011 75 276 0.0 3.0 0.00 0.00 0.00 27 1005.0
20200123200510 76 278 1.0 3.0 0.00 0.00 0.00 26 1004.8
20200123200010 76 281 0.0 5.0 0.00 0.00 0.00 26 1004.7
20200123193510 77 249 0.0 3.0 0.00 0.00 0.00 27 1004.4
20200123193010 77 249 0.0 7.0 0.00 0.00 0.00 27 1004.3
20200123190510 78 273 1.0 5.0 0.00 0.00 0.00 29 1003.8
20200123190015 78 250 0.0 8.0 0.00 0.00 0.00 29 1003.7
20200123183510 79 258 2.0 7.0 0.00 0.00 0.00 26 1003.3
20200123183011 79 259 2.0 8.0 0.00 0.00 0.00 26 1003.3
20200123180510 80 246 2.0 8.0 0.00 0.00 0.00 25 1002.9
20200123173510 81 242 4.0 13.0 0.00 0.00 0.00 24 1002.4
20200123173011 81 264 5.0 12.0 0.00 0.00 0.00 24 1002.4
20200123170511 83 243 6.0 12.0 0.00 0.00 0.00 23 1002.0
20200123170010 83 252 4.0 18.0 0.00 0.00 0.00 22 1002.0
20200123163011 85 224 5.0 22.0 0.00 0.00 0.00 20 1001.7
20200123160510 86 273 13.0 21.0 0.00 0.00 0.00 19 1001.4
20200123160010 86 271 9.0 23.0 0.00 0.00 0.00 20 1001.3
20200123150510 88 279 8.0 22.0 0.00 0.00 0.00 19 1001.5
20200123143010 89 280 14.0 24.0 0.00 0.00 0.00 18 1001.7
20200123140510 89 300 10.0 16.0 0.00 0.00 0.00 19 1001.9
20200123140010 88 298 12.0 24.0 0.00 0.00 0.00 19 1001.9
20200123133510 89 246 12.0 24.0 0.00 0.00 0.00 18 1001.9
20200123133010 89 275 10.0 22.0 0.00 0.00 0.00 18 1001.9
20200123130011 89 281 6.0 25.0 0.00 0.00 0.00 18 1002.1
20200123123510 89 234 7.0 20.0 0.00 0.00 0.00 19 1002.2
20200123123010 89 273 7.0 20.0 0.00 0.00 0.00 19 1002.2
20200123113509 88 260 6.0 21.0 0.00 0.00 0.00 20 1002.7
20200123110510 89 304 6.0 20.0 0.00 0.00 0.00 20 1002.9
20200123110010 90 293 8.0 20.0 0.00 0.00 0.00 20 1003.1
20200123103510 88 315 2.0 10.0 0.00 0.00 0.00 21 1003.1
20200123100010 88 336 3.0 13.0 0.00 0.00 0.00 22 1003.3
20200123093509 86 275 1.0 9.0 0.00 0.00 0.00 22 1003.5
20200123093011 87 294 7.0 13.0 0.00 0.00 0.00 21 1003.6
20200123090010 85 349 1.0 9.0 0.00 0.00 0.00 23 1003.7
20200123083509 84 320 3.0 8.0 0.00 0.00 0.00 24 1004.0
20200123080510 82 226 1.0 3.0 0.00 0.00 0.00 23 1004.2
20200123080010 82 227 2.0 8.0 0.00 0.00 0.00 24 1004.2
20200123073510 81 126 0.0 3.0 0.00 0.00 0.00 22 1004.2
20200123070009 79 40 0.0 2.0 0.00 0.00 0.00 22 1004.3